Time,TemperatureF,DewpointF,PressureIn,WindDirection,WindDirectionDegrees,WindSpeedMPH,WindSpeedGustMPH,Humidity,HourlyPrecipIn,Conditions,Clouds,dailyrainin,SoftwareType,DateUTC
2013-01-23 00:00:00,-1.6,-4.3,30.27,ENE,67,0.0,0.0,88,0.00,,,0.00,WUHU216DAVISVP2,2013-01-23 05:00:00,
2013-01-23 00:02:00,-1.7,-4.4,30.27,ENE,67,0.0,0.0,88,0.00,,,0.00,WUHU216DAVISVP2,2013-01-23 05:02:00,
2013-01-23 00:03:00,-1.7,-4.4,30.27,ENE,66,0.0,0.0,88,0.00,,,0.00,WUHU216DAVISVP2,2013-01-23 05:03:00,
2013-01-23 00:08:00,-1.6,-4.3,30.26,ENE,66,0.0,0.0,88,0.00,,,0.00,WUHU216DAVISVP2,2013-01-23 05:08:00,
2013-01-23 00:13:00,-1.8,-4.5,30.26,ENE,67,0.0,0.0,88,0.00,,,0.00,WUHU216DAVISVP2,2013-01-23 05:13:00,
2013-01-23 00:18:00,-1.7,-4.2,30.26,NNE,12,1.0,2.0,89,0.00,,,0.00,WUHU216DAVISVP2,2013-01-23 05:18:00,
2013-01-23 00:23:00,-2.0,-4.7,30.26,NE,49,2.0,5.0,88,0.00,,,0.00,WUHU216DAVISVP2,2013-01-23 05:23:00,
2013-01-23 00:28:00,-2.3,-5.0,30.26,NE,41,2.0,5.0,88,0.00,,,0.00,WUHU216DAVISVP2,2013-01-23 05:28:00,
2013-01-23 00:30:00,-2.3,-5.0,30.26,NE,45,1.0,5.0,88,0.00,,,0.00,WUHU216DAVISVP2,2013-01-23 05:30:00,
2013-01-23 00:33:00,-2.3,-5.0,30.26,NE,39,2.0,5.0,88,0.00,,,0.00,WUHU216DAVISVP2,2013-01-23 05:33:00,
2013-01-23 00:38:00,-2.1,-4.8,30.26,NE,39,0.0,5.0,88,0.00,,,0.00,WUHU216DAVISVP2,2013-01-23 05:38:00,
2013-01-23 00:43:00,-2.0,-4.7,30.26,NE,39,1.0,2.0,88,0.00,,,0.00,WUHU216DAVISVP2,2013-01-23 05:43:00,
2013-01-23 00:48:00,-2.1,-4.8,30.26,NE,39,0.0,2.0,88,0.00,,,0.00,WUHU216DAVISVP2,2013-01-23 05:48:00,
2013-01-23 00:53:00,-2.1,-4.8,30.26,NE,39,1.0,2.0,88,0.00,,,0.00,WUHU216DAVISVP2,2013-01-23 05:53:00,
2013-01-23 00:58:00,-2.3,-5.0,30.26,NE,39,0.0,2.0,88,0.00,,,0.00,WUHU216DAVISVP2,2013-01-23 05:58:00,
2013-01-23 01:00:00,-2.3,-5.0,30.25,NE,45,0.0,2.0,88,0.00,,,0.00,WUHU216DAVISVP2,2013-01-23 06:00:00,
2013-01-23 01:03:00,-2.2,-4.9,30.25,NE,39,0.0,1.0,88,0.00,,,0.00,WUHU216DAVISVP2,2013-01-23 06:03:00,
2013-01-23 01:08:00,-2.3,-5.0,30.25,NE,39,0.0,1.0,88,0.00,,,0.00,WUHU216DAVISVP2,2013-01-23 06:08:00,
2013-01-23 01:13:00,-2.4,-5.1,30.25,NE,39,0.0,1.0,88,0.00,,,0.00,WUHU216DAVISVP2,2013-01-23 06:13:00,
2013-01-23 01:18:00,-2.5,-5.2,30.25,NE,39,0.0,1.0,88,0.00,,,0.00,WUHU216DAVISVP2,2013-01-23 06:18:00,
2013-01-23 01:23:00,-2.5,-5.2,30.25,NE,39,0.0,0.0,88,0.00,,,0.00,WUHU216DAVISVP2,2013-01-23 06:23:00,
2013-01-23 01:28:00,-2.4,-5.1,30.25,NE,39,0.0,0.0,88,0.00,,,0.00,WUHU216DAVISVP2,2013-01-23 06:28:00,
2013-01-23 01:30:00,-2.4,-5.1,30.25,North,0,0.0,1.0,88,0.00,,,0.00,WUHU216DAVISVP2,2013-01-23 06:30:00,
2013-01-23 01:33:00,-2.4,-5.1,30.25,North,11,0.0,1.0,88,0.00,,,0.00,WUHU216DAVISVP2,2013-01-23 06:33:00,
2013-01-23 01:38:00,-2.3,-5.0,30.25,North,352,0.0,2.0,88,0.00,,,0.00,WUHU216DAVISVP2,2013-01-23 06:38:00,
2013-01-23 01:43:00,-2.5,-5.2,30.25,North,352,0.0,2.0,88,0.00,,,0.00,WUHU216DAVISVP2,2013-01-23 06:43:00,
2013-01-23 01:48:00,-2.5,-5.2,30.25,North,359,1.0,1.0,88,0.00,,,0.00,WUHU216DAVISVP2,2013-01-23 06:48:00,
2013-01-23 01:53:00,-2.3,-5.0,30.25,North,359,0.0,1.0,88,0.00,,,0.00,WUHU216DAVISVP2,2013-01-23 06:53:00,
2013-01-23 01:58:00,-2.5,-5.2,30.25,North,359,0.0,1.0,88,0.00,,,0.00,WUHU216DAVISVP2,2013-01-23 06:58:00,
2013-01-23 02:00:00,-2.9,-5.8,30.25,North,0,0.0,2.0,87,0.00,,,0.00,WUHU216DAVISVP2,2013-01-23 07:00:00,
2013-01-23 02:03:00,-3.1,-6.0,30.25,North,358,0.0,1.0,87,0.00,,,0.00,WUHU216DAVISVP2,2013-01-23 07:03:00,
2013-01-23 02:08:00,-3.0,-5.7,30.25,North,359,0.0,1.0,88,0.00,,,0.00,WUHU216DAVISVP2,2013-01-23 07:08:00,
2013-01-23 02:13:00,-3.2,-5.9,30.25,North,358,0.0,1.0,88,0.00,,,0.00,WUHU216DAVISVP2,2013-01-23 07:13:00,
2013-01-23 02:18:00,-3.3,-6.0,30.25,North,359,0.0,1.0,88,0.00,,,0.00,WUHU216DAVISVP2,2013-01-23 07:18:00,
2013-01-23 02:23:00,-3.5,-6.4,30.25,North,359,1.0,1.0,87,0.00,,,0.00,WUHU216DAVISVP2,2013-01-23 07:23:00,
2013-01-23 02:28:00,-3.6,-6.5,30.25,North,358,1.0,1.0,87,0.00,,,0.00,WUHU216DAVISVP2,2013-01-23 07:28:00,
2013-01-23 02:30:00,-3.6,-6.5,30.25,North,0,0.0,1.0,87,0.00,,,0.00,WUHU216DAVISVP2,2013-01-23 07:30:00,
2013-01-23 02:33:00,-3.4,-6.1,30.25,North,358,0.0,1.0,88,0.00,,,0.00,WUHU216DAVISVP2,2013-01-23 07:33:00,
2013-01-23 02:38:00,-3.6,-6.5,30.25,North,359,0.0,1.0,87,0.00,,,0.00,WUHU216DAVISVP2,2013-01-23 07:38:00,
2013-01-23 02:43:00,-3.6,-6.5,30.25,NNW,328,0.0,1.0,87,0.00,,,0.00,WUHU216DAVISVP2,2013-01-23 07:43:00,
2013-01-23 02:48:00,-3.5,-6.4,30.25,NNW,328,0.0,1.0,87,0.00,,,0.00,WUHU216DAVISVP2,2013-01-23 07:48:00,
2013-01-23 02:53:00,-3.7,-6.6,30.25,WSW,252,0.0,1.0,87,0.00,,,0.00,WUHU216DAVISVP2,2013-01-23 07:53:00,
2013-01-23 02:58:00,-3.2,-5.9,30.25,NW,323,0.0,2.0,88,0.00,,,0.00,WUHU216DAVISVP2,2013-01-23 07:58:00,
2013-01-23 03:00:00,-3.3,-6.2,30.25,NW,315,0.0,2.0,87,0.00,,,0.00,WUHU216DAVISVP2,2013-01-23 08:00:00,
2013-01-23 03:03:00,-3.3,-6.2,30.25,NW,323,1.0,2.0,87,0.00,,,0.00,WUHU216DAVISVP2,2013-01-23 08:03:00,
2013-01-23 03:08:00,-3.3,-6.2,30.25,NW,319,0.0,2.0,87,0.00,,,0.00,WUHU216DAVISVP2,2013-01-23 08:08:00,
2013-01-23 03:13:00,-3.0,-5.7,30.25,NW,319,0.0,2.0,88,0.00,,,0.00,WUHU216DAVISVP2,2013-01-23 08:13:00,
2013-01-23 03:18:00,-2.8,-5.5,30.25,NE,41,1.0,2.0,88,0.00,,,0.00,WUHU216DAVISVP2,2013-01-23 08:18:00,
2013-01-23 03:23:00,-2.6,-5.3,30.25,NE,40,0.0,2.0,88,0.00,,,0.00,WUHU216DAVISVP2,2013-01-23 08:23:00,
2013-01-23 03:28:00,-2.5,-5.2,30.25,NE,49,0.0,2.0,88,0.00,,,0.00,WUHU216DAVISVP2,2013-01-23 08:28:00,
2013-01-23 03:30:00,-2.5,-5.2,30.25,NE,45,1.0,2.0,88,0.00,,,0.00,WUHU216DAVISVP2,2013-01-23 08:30:00,
2013-01-23 03:33:00,-2.5,-5.4,30.25,NE,49,0.0,2.0,87,0.00,,,0.00,WUHU216DAVISVP2,2013-01-23 08:33:00,
2013-01-23 03:38:00,-2.5,-5.4,30.25,NE,49,0.0,2.0,87,0.00,,,0.00,WUHU216DAVISVP2,2013-01-23 08:38:00,
2013-01-23 03:43:00,-2.2,-4.9,30.25,NE,49,0.0,1.0,88,0.00,,,0.00,WUHU216DAVISVP2,2013-01-23 08:43:00,
2013-01-23 03:48:00,-1.5,-4.0,30.25,NNE,30,1.0,2.0,89,0.00,,,0.00,WUHU216DAVISVP2,2013-01-23 08:48:00,
2013-01-23 03:53:00,-1.1,-3.6,30.25,NE,46,1.0,2.0,89,0.00,,,0.00,WUHU216DAVISVP2,2013-01-23 08:53:00,
2013-01-23 03:58:00,-0.7,-3.4,30.24,NE,35,1.0,2.0,88,0.00,,,0.00,WUHU216DAVISVP2,2013-01-23 08:58:00,
2013-01-23 04:00:00,-0.5,-3.2,30.24,NE,45,0.0,2.0,88,0.00,,,0.00,WUHU216DAVISVP2,2013-01-23 09:00:00,
2013-01-23 04:03:00,-0.3,-2.8,30.24,NE,35,1.0,2.0,89,0.00,,,0.00,WUHU216DAVISVP2,2013-01-23 09:03:00,
2013-01-23 04:08:00,0.0,-2.5,30.24,NE,54,1.0,3.0,89,0.00,,,0.00,WUHU216DAVISVP2,2013-01-23 09:08:00,
2013-01-23 04:13:00,0.3,-2.5,30.24,NE,43,2.0,3.0,88,0.00,,,0.00,WUHU216DAVISVP2,2013-01-23 09:13:00,
2013-01-23 04:18:00,0.6,-2.2,30.24,NNE,25,0.0,4.0,88,0.00,,,0.00,WUHU216DAVISVP2,2013-01-23 09:18:00,
2013-01-23 04:23:00,0.8,-2.0,30.24,ENE,58,2.0,4.0,88,0.00,,,0.00,WUHU216DAVISVP2,2013-01-23 09:23:00,
2013-01-23 04:28:00,1.0,-1.8,30.24,NNW,342,1.0,3.0,88,0.00,,,0.00,WUHU216DAVISVP2,2013-01-23 09:28:00,
2013-01-23 04:30:00,1.0,-1.7,30.24,NE,45,1.0,4.0,88,0.00,,,0.00,WUHU216DAVISVP2,2013-01-23 09:30:00,
2013-01-23 04:33:00,1.1,-1.7,30.24,NNE,30,1.0,3.0,88,0.00,,,0.00,WUHU216DAVISVP2,2013-01-23 09:33:00,
2013-01-23 04:38:00,1.4,-1.4,30.24,NE,49,2.0,4.0,88,0.00,,,0.00,WUHU216DAVISVP2,2013-01-23 09:38:00,
2013-01-23 04:44:00,1.6,-1.2,30.23,NE,35,1.0,5.0,88,0.00,,,0.00,WUHU216DAVISVP2,2013-01-23 09:44:00,
2013-01-23 04:48:00,1.8,-1.0,30.23,NE,39,0.0,5.0,88,0.00,,,0.00,WUHU216DAVISVP2,2013-01-23 09:48:00,
2013-01-23 04:53:00,1.9,-0.9,30.23,NNW,343,2.0,5.0,88,0.00,,,0.00,WUHU216DAVISVP2,2013-01-23 09:53:00,
2013-01-23 04:58:00,2.1,-0.7,30.23,NE,41,2.0,5.0,88,0.00,,,0.00,WUHU216DAVISVP2,2013-01-23 09:58:00,
2013-01-23 05:00:00,2.1,-0.6,30.23,NE,45,1.0,5.0,88,0.00,,,0.00,WUHU216DAVISVP2,2013-01-23 10:00:00,
2013-01-23 05:03:00,2.2,-0.5,30.23,NE,35,0.0,5.0,88,0.00,,,0.00,WUHU216DAVISVP2,2013-01-23 10:03:00,
2013-01-23 05:09:00,2.4,-0.3,30.23,NE,39,3.0,5.0,88,0.00,,,0.00,WUHU216DAVISVP2,2013-01-23 10:09:00,
2013-01-23 05:14:00,2.5,-0.2,30.22,North,9,2.0,5.0,88,0.00,,,0.00,WUHU216DAVISVP2,2013-01-23 10:14:00,
2013-01-23 05:19:00,2.7,0.0,30.22,North,352,0.0,5.0,88,0.00,,,0.00,WUHU216DAVISVP2,2013-01-23 10:19:00,
2013-01-23 05:24:00,2.8,0.0,30.22,NW,316,2.0,5.0,88,0.00,,,0.00,WUHU216DAVISVP2,2013-01-23 10:24:00,
2013-01-23 05:29:00,2.9,0.1,30.22,NNE,31,1.0,5.0,88,0.00,,,0.00,WUHU216DAVISVP2,2013-01-23 10:29:00,
2013-01-23 05:30:00,3.0,0.3,30.22,NNE,23,2.0,5.0,88,0.00,,,0.00,WUHU216DAVISVP2,2013-01-23 10:30:00,
2013-01-23 05:34:00,3.1,0.3,30.22,NE,39,1.0,4.0,88,0.00,,,0.00,WUHU216DAVISVP2,2013-01-23 10:34:00,
2013-01-23 05:39:00,3.2,0.4,30.22,NE,49,2.0,4.0,88,0.00,,,0.00,WUHU216DAVISVP2,2013-01-23 10:39:00,
2013-01-23 05:44:00,3.3,0.5,30.22,NNE,27,2.0,4.0,88,0.00,,,0.00,WUHU216DAVISVP2,2013-01-23 10:44:00,
2013-01-23 05:49:00,3.3,0.5,30.22,NE,47,2.0,5.0,88,0.00,,,0.00,WUHU216DAVISVP2,2013-01-23 10:49:00,
2013-01-23 05:54:00,3.4,0.6,30.21,NNW,345,2.0,5.0,88,0.00,,,0.00,WUHU216DAVISVP2,2013-01-23 10:54:00,
2013-01-23 05:59:00,3.5,0.7,30.22,NW,323,2.0,5.0,88,0.00,,,0.00,WUHU216DAVISVP2,2013-01-23 10:59:00,
2013-01-23 06:00:00,3.5,0.7,30.22,NE,45,2.0,6.0,88,0.00,,,0.00,WUHU216DAVISVP2,2013-01-23 11:00:00,
2013-01-23 06:04:00,3.5,0.7,30.21,NNE,27,4.0,6.0,88,0.00,,,0.00,WUHU216DAVISVP2,2013-01-23 11:04:00,
2013-01-23 06:09:00,3.5,0.7,30.21,NE,49,4.0,7.0,88,0.00,,,0.00,WUHU216DAVISVP2,2013-01-23 11:09:00,
2013-01-23 06:14:00,3.5,0.7,30.21,NE,53,3.0,7.0,88,0.00,,,0.00,WUHU216DAVISVP2,2013-01-23 11:14:00,
2013-01-23 06:19:00,3.6,0.8,30.21,NE,43,2.0,6.0,88,0.00,,,0.00,WUHU216DAVISVP2,2013-01-23 11:19:00,
2013-01-23 06:24:00,3.6,0.6,30.21,NNE,15,4.0,6.0,87,0.00,,,0.00,WUHU216DAVISVP2,2013-01-23 11:24:00,
2013-01-23 06:29:00,3.5,0.5,30.21,NNE,22,1.0,7.0,87,0.00,,,0.00,WUHU216DAVISVP2,2013-01-23 11:29:00,
2013-01-23 06:30:00,3.6,0.6,30.21,NNE,23,3.0,7.0,87,0.00,,,0.00,WUHU216DAVISVP2,2013-01-23 11:30:00,
2013-01-23 06:34:00,3.6,0.6,30.20,NNW,333,2.0,7.0,87,0.00,,,0.00,WUHU216DAVISVP2,2013-01-23 11:34:00,
2013-01-23 06:39:00,3.6,0.6,30.20,NE,55,1.0,6.0,87,0.00,,,0.00,WUHU216DAVISVP2,2013-01-23 11:39:00,
2013-01-23 06:44:00,3.7,0.7,30.21,NNE,27,4.0,6.0,87,0.00,,,0.00,WUHU216DAVISVP2,2013-01-23 11:44:00,
2013-01-23 06:49:00,3.7,0.7,30.21,NNE,19,1.0,6.0,87,0.00,,,0.00,WUHU216DAVISVP2,2013-01-23 11:49:00,
2013-01-23 06:54:00,3.7,0.7,30.21,North,4,2.0,6.0,87,0.00,,,0.00,WUHU216DAVISVP2,2013-01-23 11:54:00,
2013-01-23 06:59:00,3.7,0.7,30.21,NNE,27,2.0,7.0,87,0.00,,,0.00,WUHU216DAVISVP2,2013-01-23 11:59:00,
2013-01-23 07:00:00,3.7,0.7,30.21,NNE,23,3.0,7.0,87,0.00,,,0.00,WUHU216DAVISVP2,2013-01-23 12:00:00,
2013-01-23 07:04:00,3.8,1.0,30.21,NNE,32,3.0,7.0,88,0.00,,,0.00,WUHU216DAVISVP2,2013-01-23 12:04:00,
2013-01-23 07:09:00,3.7,0.9,30.20,NE,37,2.0,7.0,88,0.00,,,0.00,WUHU216DAVISVP2,2013-01-23 12:09:00,
2013-01-23 07:14:00,3.7,0.9,30.20,NE,36,3.0,7.0,88,0.00,,,0.00,WUHU216DAVISVP2,2013-01-23 12:14:00,
2013-01-23 07:19:00,3.8,1.0,30.20,NNE,33,2.0,7.0,88,0.00,,,0.00,WUHU216DAVISVP2,2013-01-23 12:19:00,
2013-01-23 07:24:00,3.7,0.9,30.20,NNE,29,3.0,7.0,88,0.00,,,0.00,WUHU216DAVISVP2,2013-01-23 12:24:00,
2013-01-23 07:29:00,3.7,0.9,30.20,North,9,2.0,7.0,88,0.00,,,0.00,WUHU216DAVISVP2,2013-01-23 12:29:00,
2013-01-23 07:30:00,3.8,1.0,30.20,NNE,23,3.0,7.0,88,0.00,,,0.00,WUHU216DAVISVP2,2013-01-23 12:30:00,
2013-01-23 07:34:00,3.8,1.0,30.20,ENE,58,3.0,7.0,88,0.00,,,0.00,WUHU216DAVISVP2,2013-01-23 12:34:00,
2013-01-23 07:39:00,3.8,1.0,30.19,NNE,29,2.0,7.0,88,0.00,,,0.00,WUHU216DAVISVP2,2013-01-23 12:39:00,
2013-01-23 07:44:00,3.8,1.0,30.19,North,11,3.0,7.0,88,0.00,,,0.00,WUHU216DAVISVP2,2013-01-23 12:44:00,
2013-01-23 07:49:00,3.8,1.0,30.19,NNE,25,5.0,7.0,88,0.00,,,0.00,WUHU216DAVISVP2,2013-01-23 12:49:00,
2013-01-23 07:54:00,3.9,1.1,30.19,NE,50,6.0,9.0,88,0.00,,,0.00,WUHU216DAVISVP2,2013-01-23 12:54:00,
2013-01-23 07:59:00,3.9,1.1,30.19,NNW,345,4.0,9.0,88,0.00,,,0.00,WUHU216DAVISVP2,2013-01-23 12:59:00,
2013-01-23 08:00:00,3.9,1.1,30.19,NNE,23,4.0,9.0,88,0.00,,,0.00,WUHU216DAVISVP2,2013-01-23 13:00:00,
2013-01-23 08:04:00,4.0,1.2,30.19,NE,51,6.0,8.0,88,0.00,,,0.00,WUHU216DAVISVP2,2013-01-23 13:04:00,
2013-01-23 08:09:00,4.0,1.2,30.19,North,8,1.0,8.0,88,0.00,,,0.00,WUHU216DAVISVP2,2013-01-23 13:09:00,
2013-01-23 08:14:00,4.0,1.2,30.19,NNW,336,2.0,8.0,88,0.00,,,0.00,WUHU216DAVISVP2,2013-01-23 13:14:00,
2013-01-23 08:19:00,3.9,1.1,30.19,NNW,344,2.0,8.0,88,0.00,,,0.00,WUHU216DAVISVP2,2013-01-23 13:19:00,
2013-01-23 08:24:00,4.0,1.2,30.19,NNE,26,4.0,7.0,88,0.00,,,0.00,WUHU216DAVISVP2,2013-01-23 13:24:00,
2013-01-23 08:29:00,4.0,1.2,30.19,NNE,18,3.0,7.0,88,0.00,,,0.00,WUHU216DAVISVP2,2013-01-23 13:29:00,
2013-01-23 08:30:00,4.0,1.2,30.19,NNE,23,3.0,8.0,88,0.00,,,0.00,WUHU216DAVISVP2,2013-01-23 13:30:00,
2013-01-23 08:34:00,4.1,1.3,30.19,NE,51,3.0,6.0,88,0.00,,,0.00,WUHU216DAVISVP2,2013-01-23 13:34:00,
2013-01-23 08:39:00,4.2,1.4,30.19,NW,324,2.0,6.0,88,0.00,,,0.00,WUHU216DAVISVP2,2013-01-23 13:39:00,
2013-01-23 08:44:00,4.3,1.5,30.19,North,7,1.0,5.0,88,0.00,,,0.00,WUHU216DAVISVP2,2013-01-23 13:44:00,
2013-01-23 08:49:00,4.3,1.5,30.19,North,358,1.0,6.0,88,0.00,,,0.00,WUHU216DAVISVP2,2013-01-23 13:49:00,
2013-01-23 08:54:00,4.4,1.6,30.19,North,11,0.0,6.0,88,0.00,,,0.00,WUHU216DAVISVP2,2013-01-23 13:54:00,
2013-01-23 08:59:00,4.6,1.8,30.19,NNW,330,2.0,6.0,88,0.00,,,0.00,WUHU216DAVISVP2,2013-01-23 13:59:00,
2013-01-23 09:00:00,4.6,1.8,30.18,NNE,23,2.0,6.0,88,0.00,,,0.00,WUHU216DAVISVP2,2013-01-23 14:00:00,
2013-01-23 09:04:00,4.6,1.8,30.18,North,352,2.0,6.0,88,0.00,,,0.00,WUHU216DAVISVP2,2013-01-23 14:04:00,
2013-01-23 09:09:00,4.7,1.9,30.18,North,349,3.0,5.0,88,0.00,,,0.00,WUHU216DAVISVP2,2013-01-23 14:09:00,
2013-01-23 09:14:00,4.8,2.0,30.18,North,352,3.0,5.0,88,0.00,,,0.00,WUHU216DAVISVP2,2013-01-23 14:14:00,
2013-01-23 09:19:00,4.9,1.8,30.18,NNW,333,1.0,7.0,87,0.00,,,0.00,WUHU216DAVISVP2,2013-01-23 14:19:00,
2013-01-23 09:24:00,5.1,2.0,30.18,NNW,336,3.0,7.0,87,0.00,,,0.00,WUHU216DAVISVP2,2013-01-23 14:24:00,
2013-01-23 09:29:00,5.2,2.1,30.18,NNW,334,4.0,7.0,87,0.00,,,0.00,WUHU216DAVISVP2,2013-01-23 14:29:00,
2013-01-23 09:30:00,5.3,2.3,30.18,NNW,338,3.0,7.0,87,0.00,,,0.00,WUHU216DAVISVP2,2013-01-23 14:30:00,
2013-01-23 09:34:00,5.4,2.3,30.18,NNW,344,2.0,7.0,87,0.00,,,0.00,WUHU216DAVISVP2,2013-01-23 14:34:00,
2013-01-23 09:39:00,5.7,2.9,30.18,NE,39,2.0,7.0,88,0.00,,,0.00,WUHU216DAVISVP2,2013-01-23 14:39:00,
2013-01-23 09:44:00,5.9,2.8,30.18,NNW,330,2.0,7.0,87,0.00,,,0.00,WUHU216DAVISVP2,2013-01-23 14:44:00,
2013-01-23 09:49:00,6.1,3.0,30.18,NE,35,2.0,7.0,87,0.00,,,0.00,WUHU216DAVISVP2,2013-01-23 14:49:00,
2013-01-23 09:54:00,6.5,3.4,30.18,NE,45,3.0,7.0,87,0.00,,,0.00,WUHU216DAVISVP2,2013-01-23 14:54:00,
2013-01-23 09:59:00,6.6,3.5,30.18,NNE,29,5.0,7.0,87,0.00,,,0.00,WUHU216DAVISVP2,2013-01-23 14:59:00,
2013-01-23 10:00:00,6.6,3.6,30.18,NNW,338,3.0,7.0,87,0.00,,,0.00,WUHU216DAVISVP2,2013-01-23 15:00:00,
2013-01-23 10:04:00,6.6,3.3,30.18,NE,42,4.0,7.0,86,0.00,,,0.00,WUHU216DAVISVP2,2013-01-23 15:04:00,
2013-01-23 10:09:00,6.7,3.4,30.18,North,8,2.0,7.0,86,0.00,,,0.00,WUHU216DAVISVP2,2013-01-23 15:09:00,
2013-01-23 10:14:00,6.9,3.6,30.18,NE,37,2.0,8.0,86,0.00,,,0.00,WUHU216DAVISVP2,2013-01-23 15:14:00,
2013-01-23 10:19:00,7.0,3.7,30.18,North,352,3.0,8.0,86,0.00,,,0.00,WUHU216DAVISVP2,2013-01-23 15:19:00,
2013-01-23 10:24:00,7.1,3.8,30.17,NE,49,6.0,7.0,86,0.00,,,0.00,WUHU216DAVISVP2,2013-01-23 15:24:00,
2013-01-23 10:29:00,7.3,4.0,30.18,NE,56,3.0,7.0,86,0.00,,,0.00,WUHU216DAVISVP2,2013-01-23 15:29:00,
2013-01-23 10:30:00,7.2,3.9,30.18,NE,45,4.0,8.0,86,0.00,,,0.00,WUHU216DAVISVP2,2013-01-23 15:30:00,
2013-01-23 10:34:00,7.2,3.9,30.18,NNE,15,5.0,7.0,86,0.00,,,0.00,WUHU216DAVISVP2,2013-01-23 15:34:00,
2013-01-23 10:39:00,7.4,4.1,30.18,NE,34,2.0,7.0,86,0.00,,,0.00,WUHU216DAVISVP2,2013-01-23 15:39:00,
2013-01-23 10:44:00,7.7,4.4,30.17,NE,36,3.0,7.0,86,0.00,,,0.00,WUHU216DAVISVP2,2013-01-23 15:44:00,
2013-01-23 10:49:00,7.8,4.5,30.18,NNE,31,2.0,7.0,86,0.00,,,0.00,WUHU216DAVISVP2,2013-01-23 15:49:00,
2013-01-23 10:54:00,8.1,4.7,30.17,NNE,22,5.0,6.0,86,0.00,,,0.00,WUHU216DAVISVP2,2013-01-23 15:54:00,
2013-01-23 10:59:00,8.2,4.8,30.17,NNE,18,5.0,7.0,86,0.00,,,0.00,WUHU216DAVISVP2,2013-01-23 15:59:00,
2013-01-23 11:00:00,8.2,4.9,30.17,NE,45,3.0,7.0,86,0.00,,,0.00,WUHU216DAVISVP2,2013-01-23 16:00:00,
2013-01-23 11:04:00,8.4,5.1,30.17,NNE,22,6.0,7.0,86,0.00,,,0.00,WUHU216DAVISVP2,2013-01-23 16:04:00,
2013-01-23 11:09:00,8.6,5.2,30.17,NNE,32,6.0,7.0,86,0.00,,,0.00,WUHU216DAVISVP2,2013-01-23 16:09:00,
2013-01-23 11:14:00,8.8,5.4,30.17,NNE,32,3.0,7.0,86,0.00,,,0.00,WUHU216DAVISVP2,2013-01-23 16:14:00,
2013-01-23 11:19:00,9.0,5.6,30.16,NE,40,2.0,7.0,86,0.00,,,0.00,WUHU216DAVISVP2,2013-01-23 16:19:00,
2013-01-23 11:24:00,9.3,5.9,30.16,NE,51,3.0,6.0,86,0.00,,,0.00,WUHU216DAVISVP2,2013-01-23 16:24:00,
2013-01-23 11:29:00,9.7,6.6,30.16,NNE,31,5.0,8.0,87,0.00,,,0.00,WUHU216DAVISVP2,2013-01-23 16:29:00,
2013-01-23 11:30:00,9.9,6.8,30.16,NE,45,3.0,8.0,87,0.00,,,0.00,WUHU216DAVISVP2,2013-01-23 16:30:00,
2013-01-23 11:34:00,10.0,6.6,30.16,NE,56,5.0,8.0,86,0.00,,,0.00,WUHU216DAVISVP2,2013-01-23 16:34:00,
2013-01-23 11:39:00,10.2,6.8,30.16,NNE,30,4.0,8.0,86,0.00,,,0.00,WUHU216DAVISVP2,2013-01-23 16:39:00,
2013-01-23 11:44:00,10.3,6.9,30.16,NE,40,4.0,8.0,86,0.00,,,0.00,WUHU216DAVISVP2,2013-01-23 16:44:00,
2013-01-23 11:49:00,10.4,6.8,30.15,ENE,75,4.0,8.0,85,0.00,,,0.00,WUHU216DAVISVP2,2013-01-23 16:49:00,
2013-01-23 11:54:00,10.5,6.9,30.15,NNE,29,3.0,8.0,85,0.00,,,0.00,WUHU216DAVISVP2,2013-01-23 16:54:00,
2013-01-23 11:59:00,10.7,7.3,30.15,NE,50,5.0,8.0,86,0.00,,,0.00,WUHU216DAVISVP2,2013-01-23 16:59:00,
2013-01-23 12:00:00,10.8,7.4,30.15,NE,45,4.0,8.0,86,0.00,,,0.00,WUHU216DAVISVP2,2013-01-23 17:00:00,
2013-01-23 12:04:00,11.1,7.7,30.15,NE,47,2.0,7.0,86,0.00,,,0.00,WUHU216DAVISVP2,2013-01-23 17:04:00,
2013-01-23 12:09:00,11.0,7.6,30.14,NE,49,4.0,9.0,86,0.00,,,0.00,WUHU216DAVISVP2,2013-01-23 17:09:00,
2013-01-23 12:14:00,11.2,7.8,30.14,NNE,27,3.0,9.0,86,0.00,,,0.00,WUHU216DAVISVP2,2013-01-23 17:14:00,
2013-01-23 12:19:00,11.5,8.1,30.14,NNE,16,3.0,8.0,86,0.00,,,0.00,WUHU216DAVISVP2,2013-01-23 17:19:00,
2013-01-23 12:24:00,11.8,8.4,30.14,NE,53,3.0,8.0,86,0.00,,,0.00,WUHU216DAVISVP2,2013-01-23 17:24:00,
2013-01-23 12:29:00,12.1,8.7,30.13,ENE,65,2.0,7.0,86,0.00,,,0.00,WUHU216DAVISVP2,2013-01-23 17:29:00,
2013-01-23 12:30:00,12.2,8.8,30.13,NE,45,4.0,9.0,86,0.00,,,0.00,WUHU216DAVISVP2,2013-01-23 17:30:00,
2013-01-23 12:34:00,12.4,9.0,30.13,NNE,33,5.0,8.0,86,0.00,,,0.00,WUHU216DAVISVP2,2013-01-23 17:34:00,
2013-01-23 12:39:00,12.4,8.7,30.13,ENE,65,7.0,8.0,85,0.00,,,0.00,WUHU216DAVISVP2,2013-01-23 17:39:00,
2013-01-23 12:44:00,12.6,8.9,30.12,ENE,67,5.0,9.0,85,0.00,,,0.00,WUHU216DAVISVP2,2013-01-23 17:44:00,
2013-01-23 12:49:00,12.9,9.2,30.12,NE,43,6.0,9.0,85,0.00,,,0.00,WUHU216DAVISVP2,2013-01-23 17:49:00,
2013-01-23 12:54:00,12.9,9.2,30.12,East,85,4.0,8.0,85,0.00,,,0.00,WUHU216DAVISVP2,2013-01-23 17:54:00,
2013-01-23 12:59:00,13.1,9.4,30.11,ENE,68,3.0,8.0,85,0.00,,,0.00,WUHU216DAVISVP2,2013-01-23 17:59:00,
2013-01-23 13:00:00,13.2,9.5,30.11,ENE,68,4.0,9.0,85,0.00,,,0.00,WUHU216DAVISVP2,2013-01-23 18:00:00,
2013-01-23 13:04:00,13.2,9.5,30.11,ENE,71,6.0,8.0,85,0.00,,,0.00,WUHU216DAVISVP2,2013-01-23 18:04:00,
2013-01-23 13:09:00,13.2,9.2,30.11,NE,46,4.0,9.0,84,0.00,,,0.00,WUHU216DAVISVP2,2013-01-23 18:09:00,
2013-01-23 13:14:00,13.4,9.7,30.10,ENE,71,2.0,9.0,85,0.00,,,0.00,WUHU216DAVISVP2,2013-01-23 18:14:00,
2013-01-23 13:19:00,13.6,10.2,30.10,ENE,68,6.0,8.0,86,0.00,,,0.00,WUHU216DAVISVP2,2013-01-23 18:19:00,
2013-01-23 13:24:00,13.7,10.0,30.10,ESE,105,8.0,12.0,85,0.00,,,0.00,WUHU216DAVISVP2,2013-01-23 18:24:00,
2013-01-23 13:29:00,13.6,9.6,30.09,ENE,77,5.0,12.0,84,0.00,,,0.00,WUHU216DAVISVP2,2013-01-23 18:29:00,
2013-01-23 13:30:00,13.7,9.8,30.09,ENE,68,5.0,12.0,84,0.00,,,0.00,WUHU216DAVISVP2,2013-01-23 18:30:00,
2013-01-23 13:34:00,14.0,10.3,30.09,East,82,5.0,11.0,85,0.00,,,0.00,WUHU216DAVISVP2,2013-01-23 18:34:00,
2013-01-23 13:39:00,14.1,10.2,30.09,ENE,65,5.0,11.0,84,0.00,,,0.00,WUHU216DAVISVP2,2013-01-23 18:39:00,
2013-01-23 13:44:00,14.2,10.2,30.09,ESE,103,7.0,11.0,84,0.00,,,0.00,WUHU216DAVISVP2,2013-01-23 18:44:00,
2013-01-23 13:49:00,14.1,9.9,30.08,ENE,62,5.0,12.0,83,0.00,,,0.00,WUHU216DAVISVP2,2013-01-23 18:49:00,
2013-01-23 13:54:00,14.0,9.5,30.08,ESE,120,3.0,12.0,82,0.00,,,0.00,WUHU216DAVISVP2,2013-01-23 18:54:00,
2013-01-23 13:59:00,14.1,9.9,30.08,ESE,108,1.0,12.0,83,0.00,,,0.00,WUHU216DAVISVP2,2013-01-23 18:59:00,
2013-01-23 14:00:00,14.2,10.0,30.08,East,90,6.0,12.0,83,0.00,,,0.00,WUHU216DAVISVP2,2013-01-23 19:00:00,
2013-01-23 14:04:00,14.2,10.0,30.08,East,80,4.0,11.0,83,0.00,,,0.00,WUHU216DAVISVP2,2013-01-23 19:04:00,
2013-01-23 14:09:00,14.3,10.3,30.07,NE,53,10.0,11.0,84,0.00,,,0.00,WUHU216DAVISVP2,2013-01-23 19:09:00,
2013-01-23 14:14:00,14.5,10.3,30.07,East,99,8.0,11.0,83,0.00,,,0.00,WUHU216DAVISVP2,2013-01-23 19:14:00,
2013-01-23 14:19:00,14.5,9.7,30.07,East,84,4.0,11.0,81,0.00,,,0.00,WUHU216DAVISVP2,2013-01-23 19:19:00,
2013-01-23 14:24:00,14.5,9.7,30.07,East,91,7.0,13.0,81,0.00,,,0.00,WUHU216DAVISVP2,2013-01-23 19:24:00,
2013-01-23 14:29:00,14.8,10.3,30.07,ENE,74,5.0,13.0,82,0.00,,,0.00,WUHU216DAVISVP2,2013-01-23 19:29:00,
2013-01-23 14:30:00,14.9,10.4,30.06,East,90,6.0,13.0,82,0.00,,,0.00,WUHU216DAVISVP2,2013-01-23 19:30:00,
2013-01-23 14:34:00,15.0,10.2,30.06,ENE,75,4.0,12.0,81,0.00,,,0.00,WUHU216DAVISVP2,2013-01-23 19:34:00,
2013-01-23 14:39:00,15.0,10.2,30.06,ENE,76,6.0,11.0,81,0.00,,,0.00,WUHU216DAVISVP2,2013-01-23 19:39:00,
2013-01-23 14:44:00,14.9,10.4,30.06,NE,51,5.0,12.0,82,0.00,,,0.00,WUHU216DAVISVP2,2013-01-23 19:44:00,
2013-01-23 14:49:00,15.0,10.5,30.06,East,94,8.0,12.0,82,0.00,,,0.00,WUHU216DAVISVP2,2013-01-23 19:49:00,
2013-01-23 14:54:00,14.8,10.3,30.06,ENE,74,6.0,11.0,82,0.00,,,0.00,WUHU216DAVISVP2,2013-01-23 19:54:00,
2013-01-23 14:59:00,15.0,10.8,30.05,ESE,110,10.0,10.0,83,0.00,,,0.00,WUHU216DAVISVP2,2013-01-23 19:59:00,
2013-01-23 15:00:00,14.8,10.3,30.05,East,90,6.0,12.0,82,0.00,,,0.00,WUHU216DAVISVP2,2013-01-23 20:00:00,
2013-01-23 15:04:00,14.8,10.6,30.05,ESE,105,6.0,10.0,83,0.00,,,0.00,WUHU216DAVISVP2,2013-01-23 20:04:00,
2013-01-23 15:09:00,14.9,10.7,30.05,ENE,71,9.0,10.0,83,0.00,,,0.00,WUHU216DAVISVP2,2013-01-23 20:09:00,
2013-01-23 15:14:00,14.9,10.7,30.05,ENE,74,5.0,10.0,83,0.00,,,0.00,WUHU216DAVISVP2,2013-01-23 20:14:00,
2013-01-23 15:19:00,14.8,10.3,30.05,East,88,5.0,10.0,82,0.00,,,0.00,WUHU216DAVISVP2,2013-01-23 20:19:00,
2013-01-23 15:24:00,15.1,10.9,30.05,East,94,6.0,10.0,83,0.00,,,0.00,WUHU216DAVISVP2,2013-01-23 20:24:00,
2013-01-23 15:29:00,15.1,10.8,30.05,East,80,3.0,11.0,83,0.00,,,0.00,WUHU216DAVISVP2,2013-01-23 20:29:00,
2013-01-23 15:30:00,15.1,10.9,30.04,East,90,6.0,11.0,83,0.00,,,0.00,WUHU216DAVISVP2,2013-01-23 20:30:00,
2013-01-23 15:34:00,15.1,10.9,30.04,East,80,4.0,11.0,83,0.00,,,0.00,WUHU216DAVISVP2,2013-01-23 20:34:00,
2013-01-23 15:39:00,15.1,11.1,30.04,East,85,4.0,9.0,84,0.00,,,0.00,WUHU216DAVISVP2,2013-01-23 20:39:00,
2013-01-23 15:44:00,15.2,11.5,30.04,East,98,8.0,10.0,85,0.00,,,0.00,WUHU216DAVISVP2,2013-01-23 20:44:00,
2013-01-23 15:49:00,15.1,11.1,30.04,East,90,8.0,12.0,84,0.00,,,0.00,WUHU216DAVISVP2,2013-01-23 20:49:00,
2013-01-23 15:54:00,15.2,10.9,30.04,East,92,6.0,12.0,83,0.00,,,0.00,WUHU216DAVISVP2,2013-01-23 20:54:00,
2013-01-23 15:59:00,15.3,11.0,30.04,ESE,116,3.0,10.0,83,0.00,,,0.00,WUHU216DAVISVP2,2013-01-23 20:59:00,
2013-01-23 16:00:00,15.3,11.3,30.04,East,90,5.0,12.0,84,0.00,,,0.00,WUHU216DAVISVP2,2013-01-23 21:00:00,
2013-01-23 16:04:00,15.2,11.2,30.04,East,100,4.0,10.0,84,0.00,,,0.00,WUHU216DAVISVP2,2013-01-23 21:04:00,
2013-01-23 16:09:00,15.1,11.4,30.04,ENE,71,6.0,9.0,85,0.00,,,0.00,WUHU216DAVISVP2,2013-01-23 21:09:00,
2013-01-23 16:14:00,15.1,11.6,30.04,East,95,6.0,9.0,86,0.00,,,0.00,WUHU216DAVISVP2,2013-01-23 21:14:00,
2013-01-23 16:19:00,15.1,11.9,30.04,East,98,5.0,8.0,87,0.00,,,0.00,WUHU216DAVISVP2,2013-01-23 21:19:00,
2013-01-23 16:24:00,15.1,11.9,30.03,East,96,2.0,7.0,87,0.00,,,0.00,WUHU216DAVISVP2,2013-01-23 21:24:00,
2013-01-23 16:29:00,15.2,12.0,30.03,ENE,74,3.0,7.0,87,0.00,,,0.00,WUHU216DAVISVP2,2013-01-23 21:29:00,
2013-01-23 16:30:00,15.2,12.0,30.03,East,90,4.0,9.0,87,0.00,,,0.00,WUHU216DAVISVP2,2013-01-23 21:30:00,
2013-01-23 16:34:00,15.1,11.9,30.03,East,101,2.0,7.0,87,0.00,,,0.00,WUHU216DAVISVP2,2013-01-23 21:34:00,
2013-01-23 16:39:00,15.1,12.1,30.03,East,101,6.0,7.0,88,0.00,,,0.00,WUHU216DAVISVP2,2013-01-23 21:39:00,
2013-01-23 16:44:00,15.1,12.1,30.03,East,95,1.0,8.0,88,0.00,,,0.00,WUHU216DAVISVP2,2013-01-23 21:44:00,
2013-01-23 16:49:00,15.1,12.1,30.03,ESE,105,5.0,8.0,88,0.00,,,0.00,WUHU216DAVISVP2,2013-01-23 21:49:00,
2013-01-23 16:54:00,15.1,12.1,30.03,East,89,3.0,7.0,88,0.00,,,0.00,WUHU216DAVISVP2,2013-01-23 21:54:00,
2013-01-23 16:59:00,15.0,12.1,30.02,East,94,2.0,7.0,88,0.00,,,0.00,WUHU216DAVISVP2,2013-01-23 21:59:00,
2013-01-23 17:00:00,15.0,12.1,30.03,East,90,4.0,8.0,88,0.00,,,0.00,WUHU216DAVISVP2,2013-01-23 22:00:00,
2013-01-23 17:04:00,15.0,12.1,30.02,East,99,2.0,6.0,88,0.00,,,0.00,WUHU216DAVISVP2,2013-01-23 22:04:00,
2013-01-23 17:09:00,15.0,12.3,30.03,ENE,78,2.0,6.0,89,0.00,,,0.00,WUHU216DAVISVP2,2013-01-23 22:09:00,
2013-01-23 17:14:00,15.0,12.3,30.03,East,101,5.0,5.0,89,0.00,,,0.00,WUHU216DAVISVP2,2013-01-23 22:14:00,
2013-01-23 17:19:00,14.9,12.2,30.03,East,98,3.0,6.0,89,0.00,,,0.00,WUHU216DAVISVP2,2013-01-23 22:19:00,
2013-01-23 17:24:00,14.9,12.2,30.03,ESE,120,1.0,6.0,89,0.00,,,0.00,WUHU216DAVISVP2,2013-01-23 22:24:00,
2013-01-23 17:29:00,14.9,12.4,30.03,ENE,74,2.0,5.0,90,0.00,,,0.00,WUHU216DAVISVP2,2013-01-23 22:29:00,
2013-01-23 17:30:00,14.9,12.5,30.03,East,90,3.0,6.0,90,0.00,,,0.00,WUHU216DAVISVP2,2013-01-23 22:30:00,
2013-01-23 17:34:00,14.9,12.4,30.03,East,100,1.0,5.0,90,0.00,,,0.00,WUHU216DAVISVP2,2013-01-23 22:34:00,
2013-01-23 17:39:00,14.9,12.4,30.03,ESE,105,2.0,4.0,90,0.00,,,0.00,WUHU216DAVISVP2,2013-01-23 22:39:00,
2013-01-23 17:44:00,14.9,12.7,30.03,ESE,113,2.0,4.0,91,0.00,,,0.00,WUHU216DAVISVP2,2013-01-23 22:44:00,
2013-01-23 17:49:00,14.8,12.6,30.03,ESE,102,0.0,4.0,91,0.00,,,0.00,WUHU216DAVISVP2,2013-01-23 22:49:00,
2013-01-23 17:54:00,14.8,12.6,30.03,East,96,2.0,4.0,91,0.00,,,0.00,WUHU216DAVISVP2,2013-01-23 22:54:00,
2013-01-23 17:59:00,14.8,12.6,30.03,ESE,122,1.0,4.0,91,0.00,,,0.00,WUHU216DAVISVP2,2013-01-23 22:59:00,
2013-01-23 18:00:00,14.8,12.6,30.03,East,90,2.0,4.0,91,0.00,,,0.00,WUHU216DAVISVP2,2013-01-23 23:00:00,
2013-01-23 18:04:00,14.8,12.6,30.03,East,90,2.0,4.0,91,0.00,,,0.00,WUHU216DAVISVP2,2013-01-23 23:04:00,
2013-01-23 18:09:00,14.8,12.6,30.03,ESE,122,0.0,3.0,91,0.00,,,0.00,WUHU216DAVISVP2,2013-01-23 23:09:00,
2013-01-23 18:14:00,14.7,12.5,30.03,ESE,119,2.0,4.0,91,0.00,,,0.00,WUHU216DAVISVP2,2013-01-23 23:14:00,
2013-01-23 18:19:00,14.7,12.5,30.03,ESE,122,5.0,6.0,91,0.00,,,0.00,WUHU216DAVISVP2,2013-01-23 23:19:00,
2013-01-23 18:24:00,14.6,12.4,30.03,East,86,2.0,6.0,91,0.00,,,0.00,WUHU216DAVISVP2,2013-01-23 23:24:00,
2013-01-23 18:29:00,14.5,12.1,30.03,SE,124,3.0,7.0,90,0.00,,,0.00,WUHU216DAVISVP2,2013-01-23 23:29:00,
2013-01-23 18:30:00,14.5,12.1,30.03,ESE,113,2.0,7.0,90,0.00,,,0.00,WUHU216DAVISVP2,2013-01-23 23:30:00,
2013-01-23 18:34:00,14.4,12.0,30.04,SE,135,4.0,7.0,90,0.00,,,0.00,WUHU216DAVISVP2,2013-01-23 23:34:00,
2013-01-23 18:39:00,14.3,11.9,30.04,SE,129,4.0,7.0,90,0.00,,,0.00,WUHU216DAVISVP2,2013-01-23 23:39:00,
2013-01-23 18:44:00,14.2,11.8,30.04,SE,129,4.0,7.0,90,0.00,,,0.00,WUHU216DAVISVP2,2013-01-23 23:44:00,
2013-01-23 18:49:00,14.1,11.9,30.04,South,174,3.0,7.0,91,0.00,,,0.00,WUHU216DAVISVP2,2013-01-23 23:49:00,
2013-01-23 18:54:00,14.1,11.7,30.04,SE,142,5.0,8.0,90,0.00,,,0.00,WUHU216DAVISVP2,2013-01-23 23:54:00,
2013-01-23 18:59:00,14.0,11.6,30.04,SE,132,2.0,8.0,90,0.00,,,0.00,WUHU216DAVISVP2,2013-01-23 23:59:00,
2013-01-23 19:00:00,14.0,11.6,30.04,SE,135,3.0,7.0,90,0.00,,,0.00,WUHU216DAVISVP2,2013-01-24 00:00:00,
2013-01-23 19:04:00,13.9,11.5,30.03,ESE,117,2.0,8.0,90,0.00,,,0.00,WUHU216DAVISVP2,2013-01-24 00:04:00,
2013-01-23 19:09:00,13.9,11.5,30.03,ESE,110,0.0,6.0,90,0.00,,,0.00,WUHU216DAVISVP2,2013-01-24 00:09:00,
2013-01-23 19:14:00,13.8,11.4,30.03,SE,127,2.0,5.0,90,0.00,,,0.00,WUHU216DAVISVP2,2013-01-24 00:14:00,
2013-01-23 19:19:00,13.8,11.4,30.03,SSE,152,4.0,6.0,90,0.00,,,0.00,WUHU216DAVISVP2,2013-01-24 00:19:00,
2013-01-23 19:24:00,13.7,11.3,30.03,SE,124,2.0,6.0,90,0.00,,,0.00,WUHU216DAVISVP2,2013-01-24 00:24:00,
2013-01-23 19:29:00,13.7,11.3,30.04,SE,139,4.0,6.0,90,0.00,,,0.00,WUHU216DAVISVP2,2013-01-24 00:29:00,
2013-01-23 19:30:00,13.7,11.3,30.04,SE,135,2.0,6.0,90,0.00,,,0.00,WUHU216DAVISVP2,2013-01-24 00:30:00,
2013-01-23 19:34:00,13.6,11.2,30.04,SE,137,4.0,6.0,90,0.00,,,0.00,WUHU216DAVISVP2,2013-01-24 00:34:00,
2013-01-23 19:39:00,13.6,11.2,30.04,ESE,118,2.0,5.0,90,0.00,,,0.00,WUHU216DAVISVP2,2013-01-24 00:39:00,
2013-01-23 19:44:00,13.6,11.2,30.04,SE,127,2.0,5.0,90,0.00,,,0.00,WUHU216DAVISVP2,2013-01-24 00:44:00,
2013-01-23 19:49:00,13.6,11.2,30.04,WSW,250,1.0,5.0,90,0.00,,,0.00,WUHU216DAVISVP2,2013-01-24 00:49:00,
2013-01-23 19:54:00,13.6,11.2,30.04,ESE,123,1.0,6.0,90,0.00,,,0.00,WUHU216DAVISVP2,2013-01-24 00:54:00,
2013-01-23 19:59:00,13.5,11.1,30.04,SE,129,4.0,6.0,90,0.00,,,0.00,WUHU216DAVISVP2,2013-01-24 00:59:00,
2013-01-23 20:00:00,13.5,11.1,30.04,SE,135,2.0,6.0,90,0.00,,,0.00,WUHU216DAVISVP2,2013-01-24 01:00:00,
2013-01-23 20:04:00,13.5,11.1,30.04,SSE,164,4.0,6.0,90,0.00,,,0.00,WUHU216DAVISVP2,2013-01-24 01:04:00,
2013-01-23 20:09:00,13.4,11.0,30.04,SE,139,4.0,8.0,90,0.00,,,0.00,WUHU216DAVISVP2,2013-01-24 01:09:00,
2013-01-23 20:14:00,13.3,10.9,30.05,SSE,165,2.0,8.0,90,0.00,,,0.00,WUHU216DAVISVP2,2013-01-24 01:14:00,
2013-01-23 20:19:00,13.3,10.9,30.05,SSW,200,6.0,8.0,90,0.00,,,0.00,WUHU216DAVISVP2,2013-01-24 01:19:00,
2013-01-23 20:24:00,13.2,10.5,30.05,SSE,153,3.0,8.0,89,0.00,,,0.00,WUHU216DAVISVP2,2013-01-24 01:24:00,
2013-01-23 20:29:00,13.2,10.5,30.05,SE,145,5.0,8.0,89,0.00,,,0.00,WUHU216DAVISVP2,2013-01-24 01:29:00,
2013-01-23 20:30:00,13.2,10.6,30.05,SSE,158,3.0,7.0,89,0.00,,,0.00,WUHU216DAVISVP2,2013-01-24 01:30:00,
2013-01-23 20:34:00,13.1,10.4,30.05,South,187,4.0,8.0,89,0.00,,,0.00,WUHU216DAVISVP2,2013-01-24 01:34:00,
2013-01-23 20:39:00,13.1,10.2,30.05,SSW,198,3.0,10.0,88,0.00,,,0.00,WUHU216DAVISVP2,2013-01-24 01:39:00,
2013-01-23 20:44:00,13.0,10.1,30.06,SSE,159,3.0,10.0,88,0.00,,,0.00,WUHU216DAVISVP2,2013-01-24 01:44:00,
2013-01-23 20:49:00,13.0,10.1,30.06,SSE,147,3.0,9.0,88,0.00,,,0.00,WUHU216DAVISVP2,2013-01-24 01:49:00,
2013-01-23 20:54:00,12.9,9.7,30.06,SSE,155,5.0,10.0,87,0.00,,,0.00,WUHU216DAVISVP2,2013-01-24 01:54:00,
2013-01-23 21:00:00,12.9,9.7,30.06,South,169,1.0,10.0,87,0.00,,,0.00,WUHU216DAVISVP2,2013-01-24 02:00:00,
2013-01-23 21:05:00,12.8,9.9,30.07,SSE,149,2.0,10.0,88,0.00,,,0.00,WUHU216DAVISVP2,2013-01-24 02:05:00,
2013-01-23 21:10:00,12.7,9.8,30.07,South,169,2.0,11.0,88,0.00,,,0.00,WUHU216DAVISVP2,2013-01-24 02:10:00,
2013-01-23 21:15:00,12.7,9.8,30.08,South,173,5.0,11.0,88,0.00,,,0.00,WUHU216DAVISVP2,2013-01-24 02:15:00,
2013-01-23 21:20:00,12.6,10.0,30.08,ESE,116,2.0,11.0,89,0.00,,,0.00,WUHU216DAVISVP2,2013-01-24 02:20:00,
2013-01-23 21:25:00,12.6,10.0,30.08,SE,129,3.0,11.0,89,0.00,,,0.00,WUHU216DAVISVP2,2013-01-24 02:25:00,
2013-01-23 21:30:00,12.6,10.0,30.08,SE,142,6.0,14.0,89,0.00,,,0.00,WUHU216DAVISVP2,2013-01-24 02:30:00,
2013-01-23 21:35:00,12.6,9.7,30.09,ESE,118,5.0,14.0,88,0.00,,,0.00,WUHU216DAVISVP2,2013-01-24 02:35:00,
2013-01-23 21:40:00,12.5,9.1,30.09,SSE,165,9.0,14.0,86,0.00,,,0.00,WUHU216DAVISVP2,2013-01-24 02:40:00,
2013-01-23 21:45:00,12.4,8.7,30.09,South,176,11.0,14.0,85,0.00,,,0.00,WUHU216DAVISVP2,2013-01-24 02:45:00,
2013-01-23 21:50:00,12.4,8.5,30.09,SE,142,14.0,15.0,84,0.00,,,0.00,WUHU216DAVISVP2,2013-01-24 02:50:00,
2013-01-23 21:55:00,12.3,8.4,30.10,SE,143,7.0,15.0,84,0.00,,,0.00,WUHU216DAVISVP2,2013-01-24 02:55:00,
2013-01-23 22:00:00,12.2,8.5,30.10,SSE,159,8.0,15.0,85,0.00,,,0.00,WUHU216DAVISVP2,2013-01-24 03:00:00,
2013-01-23 22:05:00,12.2,8.5,30.10,SE,134,4.0,15.0,85,0.00,,,0.00,WUHU216DAVISVP2,2013-01-24 03:05:00,
2013-01-23 22:10:00,12.1,8.4,30.10,SSE,149,2.0,13.0,85,0.00,,,0.00,WUHU216DAVISVP2,2013-01-24 03:10:00,
2013-01-23 22:15:00,12.0,8.6,30.10,SSW,198,2.0,13.0,86,0.00,,,0.00,WUHU216DAVISVP2,2013-01-24 03:15:00,
2013-01-23 22:20:00,11.9,8.5,30.10,South,191,7.0,12.0,86,0.00,,,0.00,WUHU216DAVISVP2,2013-01-24 03:20:00,
2013-01-23 22:25:00,11.7,8.3,30.10,SE,143,7.0,12.0,86,0.00,,,0.00,WUHU216DAVISVP2,2013-01-24 03:25:00,
2013-01-23 22:30:00,11.5,8.1,30.11,SSE,167,5.0,12.0,86,0.00,,,0.00,WUHU216DAVISVP2,2013-01-24 03:30:00,
2013-01-23 22:35:00,11.4,8.0,30.11,ESE,122,3.0,12.0,86,0.00,,,0.00,WUHU216DAVISVP2,2013-01-24 03:35:00,
2013-01-23 22:40:00,11.3,7.6,30.11,SSE,149,4.0,12.0,85,0.00,,,0.00,WUHU216DAVISVP2,2013-01-24 03:40:00,
2013-01-23 22:45:00,11.2,7.5,30.12,ESE,115,8.0,13.0,85,0.00,,,0.00,WUHU216DAVISVP2,2013-01-24 03:45:00,
2013-01-23 22:50:00,11.0,7.1,30.12,SSE,163,7.0,13.0,84,0.00,,,0.00,WUHU216DAVISVP2,2013-01-24 03:50:00,
2013-01-23 22:55:00,10.8,6.9,30.12,ESE,122,5.0,13.0,84,0.00,,,0.00,WUHU216DAVISVP2,2013-01-24 03:55:00,
2013-01-23 23:00:00,10.7,6.8,30.13,ESE,112,4.0,11.0,84,0.00,,,0.00,WUHU216DAVISVP2,2013-01-24 04:00:00,
2013-01-23 23:05:00,10.6,6.7,30.13,SSE,148,4.0,11.0,84,0.00,,,0.00,WUHU216DAVISVP2,2013-01-24 04:05:00,
2013-01-23 23:10:00,10.3,6.7,30.14,ESE,120,3.0,10.0,85,0.00,,,0.00,WUHU216DAVISVP2,2013-01-24 04:10:00,
2013-01-23 23:15:00,10.2,6.6,30.14,ESE,122,2.0,10.0,85,0.00,,,0.00,WUHU216DAVISVP2,2013-01-24 04:15:00,
2013-01-23 23:20:00,9.9,6.3,30.14,ESE,122,3.0,8.0,85,0.00,,,0.00,WUHU216DAVISVP2,2013-01-24 04:20:00,
2013-01-23 23:25:00,9.7,6.3,30.14,SE,129,5.0,8.0,86,0.00,,,0.00,WUHU216DAVISVP2,2013-01-24 04:25:00,
2013-01-23 23:30:00,9.6,6.2,30.14,ESE,110,5.0,8.0,86,0.00,,,0.00,WUHU216DAVISVP2,2013-01-24 04:30:00,
2013-01-23 23:35:00,9.4,6.0,30.15,ESE,103,3.0,8.0,86,0.00,,,0.00,WUHU216DAVISVP2,2013-01-24 04:35:00,
2013-01-23 23:40:00,9.2,5.8,30.15,ESE,119,2.0,7.0,86,0.00,,,0.00,WUHU216DAVISVP2,2013-01-24 04:40:00,
2013-01-23 23:45:00,9.0,5.6,30.15,SE,131,2.0,6.0,86,0.00,,,0.00,WUHU216DAVISVP2,2013-01-24 04:45:00,
2013-01-23 23:51:00,8.8,5.7,30.16,SE,124,3.0,6.0,87,0.00,,,0.00,WUHU216DAVISVP2,2013-01-24 04:51:00,
2013-01-23 23:55:00,8.7,5.6,30.16,SE,131,3.0,6.0,87,0.00,,,0.00,WUHU216DAVISVP2,2013-01-24 04:55:00,